Time;durP1;ratioP1;P1;durP2;ratioP2;P2;SDS_P1;SDS_P2;PMS_P1;PMS_P2;Temp;Humidity;BMP_temperature;BMP_pressure;BME280_temperature;BME280_humidity;BME280_pressure;Samples;Min_cycle;Max_cycle;Signal;HPM_P1;HPM_P2
2023/04/17 00:01:12;;;;;;;;;;;;;;;9.40;100.00;99319.13;5071615;28;1382;-69
2023/04/17 00:03:38;;;;;;;;;;;;;;;9.26;100.00;99338.53;5072863;28;841;-70
2023/04/17 00:06:05;;;;;;;;;;;;;;;9.15;100.00;99364.25;5072782;28;803;-67
2023/04/17 00:08:32;;;;;;;;;;;;;;;9.06;100.00;99366.63;5072947;28;975;-68
2023/04/17 00:10:59;;;;;;;;;;;;;;;9.06;100.00;99383.19;5072791;28;810;-68
2023/04/17 00:13:25;;;;;;;;;;;;;;;9.10;100.00;99369.38;5072655;28;844;-68
2023/04/17 00:15:52;;;;;;;;;;;;;;;9.19;100.00;99356.69;5072712;28;814;-70
2023/04/17 00:18:18;;;;;;;;;;;;;;;9.32;100.00;99348.75;5072620;28;1886;-68
2023/04/17 00:20:45;;;;;;;;;;;;;;;9.45;100.00;99368.34;5072314;28;1177;-67
2023/04/17 00:23:12;;;;;;;;;;;;;;;9.59;100.00;99367.47;5072782;28;826;-69
2023/04/17 00:25:39;;;;;;;;;;;;;;;9.73;100.00;99367.38;5072275;28;869;-68
2023/04/17 00:28:05;;;;;;;;;;;;;;;9.84;100.00;99361.75;5072448;28;892;-68
2023/04/17 00:30:31;;;;;;;;;;;;;;;9.96;100.00;99358.47;5072530;28;802;-67
2023/04/17 00:32:58;;;;;;;;;;;;;;;10.06;100.00;99359.56;5072564;28;850;-69
2023/04/17 00:35:25;;;;;;;;;;;;;;;10.14;100.00;99354.75;5071130;28;1191;-69
2023/04/17 00:37:51;;;;;;;;;;;;;;;10.21;100.00;99346.38;5072637;28;1917;-70
2023/04/17 00:40:18;;;;;;;;;;;;;;;10.27;100.00;99332.91;5072835;28;855;-69
2023/04/17 00:42:51;;;;;;;;;;;;;;;10.23;100.00;99333.72;5071759;28;843;-68
2023/04/17 00:45:21;;;;;;;;;;;;;;;10.17;100.00;99316.03;5072040;28;846;-67
2023/04/17 00:47:49;;;;;;;;;;;;;;;10.12;100.00;99291.66;5071958;28;814;-64
2023/04/17 00:50:16;;;;;;;;;;;;;;;10.04;100.00;99267.28;5072232;28;889;-64
2023/04/17 00:52:44;;;;;;;;;;;;;;;9.90;100.00;99233.13;5071969;28;889;-60
2023/04/17 00:55:11;;;;;;;;;;;;;;;9.88;100.00;99187.78;5071796;28;937;-60
2023/04/17 00:57:40;;;;;;;;;;;;;;;10.06;100.00;99157.22;5071803;28;897;-59
2023/04/17 01:00:08;;;;;;;;;;;;;;;10.21;100.00;99142.78;5071845;28;932;-60
2023/04/17 01:02:36;;;;;;;;;;;;;;;10.37;100.00;99144.97;5071759;28;961;-60
2023/04/17 01:05:03;;;;;;;;;;;;;;;10.50;100.00;99153.47;5071792;28;838;-59
2023/04/17 01:07:30;;;;;;;;;;;;;;;10.64;100.00;99160.75;5071742;28;867;-59
2023/04/17 01:09:55;;;;;;;;;;;;;;;10.70;100.00;99170.13;5072096;28;1046;-59
2023/04/17 01:12:23;;;;;;;;;;;;;;;10.80;100.00;99179.47;5071718;28;869;-59
2023/04/17 01:14:51;;;;;;;;;;;;;;;10.79;100.00;99167.63;5071895;28;814;-59
2023/04/17 01:17:18;;;;;;;;;;;;;;;10.90;100.00;99169.44;5071691;28;893;-59
2023/04/17 01:19:45;;;;;;;;;;;;;;;11.18;100.00;99168.97;5071395;28;1944;-59
2023/04/17 01:22:12;;;;;;;;;;;;;;;11.14;100.00;99164.69;5071590;28;822;-59
2023/04/17 01:24:39;;;;;;;;;;;;;;;11.04;100.00;99163.66;5071437;28;830;-59
2023/04/17 01:27:05;;;;;;;;;;;;;;;10.95;100.00;99153.16;5071458;28;1050;-59
2023/04/17 01:29:32;;;;;;;;;;;;;;;11.01;100.00;99140.41;5071580;28;806;-59
2023/04/17 01:31:59;;;;;;;;;;;;;;;11.03;100.00;99140.78;5071462;28;877;-59
2023/04/17 01:34:26;;;;;;;;;;;;;;;11.06;100.00;99141.13;5071433;28;1030;-59
2023/04/17 01:36:53;;;;;;;;;;;;;;;11.04;100.00;99141.53;5071401;28;912;-60
2023/04/17 01:39:19;;;;;;;;;;;;;;;11.08;100.00;99164.41;5071377;28;1975;-59
2023/04/17 01:41:46;;;;;;;;;;;;;;;11.12;100.00;99189.22;5071322;28;849;-59
2023/04/17 01:44:13;;;;;;;;;;;;;;;11.13;100.00;99219.22;5071349;28;845;-60
2023/04/17 01:46:40;;;;;;;;;;;;;;;11.11;100.00;99254.81;5071395;28;872;-60
2023/04/17 01:49:07;;;;;;;;;;;;;;;10.97;100.00;99264.13;5071423;28;884;-60
2023/04/17 01:51:33;;;;;;;;;;;;;;;10.78;100.00;99268.34;5071445;28;853;-60
2023/04/17 01:54:00;;;;;;;;;;;;;;;10.64;100.00;99260.25;5072840;28;815;-59
2023/04/17 01:56:27;;;;;;;;;;;;;;;10.57;100.00;99272.19;5075383;28;830;-60
2023/04/17 01:58:54;;;;;;;;;;;;;;;10.54;100.00;99264.72;5075103;28;1926;-60
2023/04/17 02:01:20;;;;;;;;;;;;;;;10.52;100.00;99293.94;5075281;28;869;-60
2023/04/17 02:03:47;;;;;;;;;;;;;;;10.50;100.00;99297.16;5075124;28;881;-59
2023/04/17 02:06:14;;;;;;;;;;;;;;;10.45;100.00;99316.16;5075108;28;892;-59
2023/04/17 02:08:41;;;;;;;;;;;;;;;10.38;100.00;99322.56;5075118;28;956;-60
2023/04/17 02:11:09;;;;;;;;;;;;;;;10.32;100.00;99327.75;5075337;28;873;-60
2023/04/17 02:13:35;;;;;;;;;;;;;;;10.32;100.00;99336.03;5074892;28;921;-59
2023/04/17 02:16:01;;;;;;;;;;;;;;;10.32;100.00;99349.06;5075032;28;877;-60
2023/04/17 02:18:29;;;;;;;;;;;;;;;10.33;100.00;99343.13;5074757;28;1999;-61
2023/04/17 02:20:56;;;;;;;;;;;;;;;10.39;100.00;99329.63;5074843;28;1261;-61
2023/04/17 02:23:22;;;;;;;;;;;;;;;10.42;100.00;99323.28;5074675;28;854;-61
2023/04/17 02:25:49;;;;;;;;;;;;;;;10.42;100.00;99303.97;5074652;28;826;-65
2023/04/17 02:28:15;;;;;;;;;;;;;;;10.39;100.00;99289.00;5074679;28;822;-62
2023/04/17 02:30:44;;;;;;;;;;;;;;;10.39;100.00;99289.00;5074536;28;857;-64
2023/04/17 02:33:11;;;;;;;;;;;;;;;10.45;100.00;99271.94;5074574;28;858;-62
2023/04/17 02:35:38;;;;;;;;;;;;;;;10.51;100.00;99251.72;5074541;28;874;-62
2023/04/17 02:38:04;;;;;;;;;;;;;;;10.56;100.00;99236.66;5074719;28;1980;-63
2023/04/17 02:40:31;;;;;;;;;;;;;;;10.55;100.00;99218.53;5074393;28;997;-62
2023/04/17 02:42:58;;;;;;;;;;;;;;;10.52;100.00;99200.00;5074389;28;806;-62
2023/04/17 02:45:24;;;;;;;;;;;;;;;10.53;100.00;99183.03;5074353;28;798;-63
2023/04/17 02:47:51;;;;;;;;;;;;;;;10.56;100.00;99187.72;5074315;28;799;-63
2023/04/17 02:50:18;;;;;;;;;;;;;;;10.60;100.00;99199.50;5074280;28;838;-64
2023/04/17 02:52:44;;;;;;;;;;;;;;;10.65;100.00;99198.25;5074083;28;849;-64
2023/04/17 02:55:12;;;;;;;;;;;;;;;10.68;100.00;99197.41;5074212;28;806;-64
2023/04/17 02:57:38;;;;;;;;;;;;;;;10.71;100.00;99198.53;5074349;28;820;-64
2023/04/17 03:00:12;;;;;;;;;;;;;;;10.72;100.00;99205.66;5074335;28;1984;-64
2023/04/17 03:02:39;;;;;;;;;;;;;;;10.75;100.00;99227.72;5074046;28;924;-64
2023/04/17 03:05:06;;;;;;;;;;;;;;;10.74;100.00;99239.97;5073267;28;1194;-64
2023/04/17 03:07:32;;;;;;;;;;;;;;;10.76;100.00;99250.63;5073919;28;896;-65
2023/04/17 03:09:59;;;;;;;;;;;;;;;10.75;100.00;99255.38;5074302;28;884;-64
2023/04/17 03:12:25;;;;;;;;;;;;;;;10.73;100.00;99246.72;5073879;28;810;-65
2023/04/17 03:14:52;;;;;;;;;;;;;;;10.74;100.00;99239.19;5073795;28;913;-65
2023/04/17 03:17:19;;;;;;;;;;;;;;;10.74;100.00;99245.50;5073873;28;884;-66
2023/04/17 03:19:46;;;;;;;;;;;;;;;10.78;100.00;99264.81;5073454;28;1882;-66
2023/04/17 03:22:13;;;;;;;;;;;;;;;10.78;100.00;99262.81;5073565;28;881;-66
2023/04/17 03:24:40;;;;;;;;;;;;;;;10.79;100.00;99277.41;5073686;28;829;-66
2023/04/17 03:27:06;;;;;;;;;;;;;;;10.80;100.00;99287.28;5073579;28;861;-69
2023/04/17 03:29:33;;;;;;;;;;;;;;;10.75;100.00;99310.66;5072316;28;916;-69
2023/04/17 03:31:59;;;;;;;;;;;;;;;10.63;100.00;99325.78;5073492;28;802;-68
2023/04/17 03:34:27;;;;;;;;;;;;;;;10.55;100.00;99332.59;5073446;28;846;-69
2023/04/17 03:36:54;;;;;;;;;;;;;;;10.53;100.00;99345.28;5073453;28;879;-65
2023/04/17 03:39:21;;;;;;;;;;;;;;;10.53;100.00;99339.75;5073325;28;1973;-63
2023/04/17 03:41:48;;;;;;;;;;;;;;;10.51;100.00;99345.69;5073583;28;822;-63
2023/04/17 03:44:16;;;;;;;;;;;;;;;10.53;100.00;99346.03;5073308;28;838;-64
2023/04/17 03:46:42;;;;;;;;;;;;;;;10.50;100.00;99338.59;5073259;28;876;-66
2023/04/17 03:49:09;;;;;;;;;;;;;;;10.48;100.00;99340.22;5073129;28;826;-65
2023/04/17 03:51:36;;;;;;;;;;;;;;;10.47;100.00;99342.16;5073229;28;908;-67
2023/04/17 03:54:02;;;;;;;;;;;;;;;10.49;100.00;99339.00;5072968;28;855;-70
2023/04/17 03:56:29;;;;;;;;;;;;;;;10.46;100.00;99328.78;5071884;28;1549;-67
2023/04/17 03:58:55;;;;;;;;;;;;;;;10.49;100.00;99336.25;5072837;28;1894;-71
2023/04/17 04:01:22;;;;;;;;;;;;;;;10.51;100.00;99326.34;5072957;28;885;-71
2023/04/17 04:03:49;;;;;;;;;;;;;;;10.53;100.00;99325.94;5072937;28;806;-71
2023/04/17 04:06:19;;;;;;;;;;;;;;;10.53;100.00;99323.16;5072864;28;853;-72
2023/04/17 04:08:45;;;;;;;;;;;;;;;10.53;100.00;99323.16;5072841;28;1034;-70
2023/04/17 04:11:12;;;;;;;;;;;;;;;10.52;100.00;99319.63;5071416;28;1215;-71
2023/04/17 04:13:39;;;;;;;;;;;;;;;10.53;100.00;99318.41;5072669;28;846;-70
2023/04/17 04:16:06;;;;;;;;;;;;;;;10.56;100.00;99308.50;5072739;28;821;-73
2023/04/17 04:18:32;;;;;;;;;;;;;;;10.60;100.00;99306.47;5071429;28;1906;-72
2023/04/17 04:24:02;;;;;;;;;;;;;;;10.59;100.00;99291.88;5072462;28;617;-72
2023/04/17 04:26:28;;;;;;;;;;;;;;;10.57;100.00;99301.81;5072758;28;889;-69
2023/04/17 04:28:55;;;;;;;;;;;;;;;10.57;100.00;99299.03;5071049;28;1240;-69
2023/04/17 04:31:22;;;;;;;;;;;;;;;10.60;100.00;99304.53;5071055;28;1167;-69
2023/04/17 04:33:53;;;;;;;;;;;;;;;10.68;100.00;99296.13;5072291;28;834;-68
2023/04/17 04:36:21;;;;;;;;;;;;;;;10.73;100.00;99299.22;5072443;28;882;-69
2023/04/17 04:38:49;;;;;;;;;;;;;;;10.74;100.00;99292.47;5072166;28;1969;-68
2023/04/17 04:41:16;;;;;;;;;;;;;;;10.73;100.00;99295.66;5072173;28;826;-69
2023/04/17 04:43:43;;;;;;;;;;;;;;;10.72;100.00;99291.34;5072052;28;857;-69
2023/04/17 04:46:10;;;;;;;;;;;;;;;10.71;100.00;99312.69;5072073;28;857;-72
2023/04/17 04:48:36;;;;;;;;;;;;;;;10.76;100.00;99319.72;5070917;28;1354;-72
2023/04/17 04:51:03;;;;;;;;;;;;;;;10.74;100.00;99328.41;5071878;28;814;-73
2023/04/17 04:53:30;;;;;;;;;;;;;;;10.76;100.00;99336.31;5070775;28;1182;-71
2023/04/17 04:55:56;;;;;;;;;;;;;;;10.74;100.00;99327.66;5071882;28;875;-72
2023/04/17 04:58:23;;;;;;;;;;;;;;;10.74;100.00;99322.88;5071861;28;1968;-74
2023/04/17 05:00:50;;;;;;;;;;;;;;;10.74;100.00;99338.69;5070680;28;1187;-75
2023/04/17 05:03:17;;;;;;;;;;;;;;;10.73;100.00;99337.13;5070496;28;1210;-75
2023/04/17 05:05:44;;;;;;;;;;;;;;;10.74;100.00;99336.72;5070514;28;1127;-71
2023/04/17 05:08:11;;;;;;;;;;;;;;;10.76;100.00;99337.09;5071768;28;922;-71
2023/04/17 05:10:38;;;;;;;;;;;;;;;10.77;100.00;99340.63;5071716;28;814;-70
2023/04/17 05:13:05;;;;;;;;;;;;;;;10.77;100.00;99344.16;5071740;28;948;-68
2023/04/17 05:15:32;;;;;;;;;;;;;;;10.83;100.00;99341.72;5071632;28;865;-66
2023/04/17 05:17:58;;;;;;;;;;;;;;;10.89;100.00;99340.06;5071649;28;1889;-69
2023/04/17 05:20:25;;;;;;;;;;;;;;;10.93;100.00;99351.09;5071270;28;1411;-72
2023/04/17 05:22:52;;;;;;;;;;;;;;;10.97;100.00;99354.59;5071662;28;850;-71
2023/04/17 05:25:21;;;;;;;;;;;;;;;10.94;100.00;99366.47;5071492;28;869;-68
2023/04/17 05:27:48;;;;;;;;;;;;;;;10.90;100.00;99374.03;5071408;28;830;-69
2023/04/17 05:30:13;;;;;;;;;;;;;;;10.78;100.00;99386.44;5071363;28;810;-71
2023/04/17 05:32:40;;;;;;;;;;;;;;;10.73;100.00;99387.69;5071465;28;876;-70
2023/04/17 05:35:08;;;;;;;;;;;;;;;10.71;100.00;99400.31;5071626;28;862;-68
2023/04/17 05:37:35;;;;;;;;;;;;;;;10.72;100.00;99394.38;5071572;28;857;-71
2023/04/17 05:40:05;;;;;;;;;;;;;;;10.71;100.00;99390.06;5071380;28;1905;-70
2023/04/17 05:42:32;;;;;;;;;;;;;;;10.68;100.00;99387.34;5070087;28;1229;-69
2023/04/17 05:44:59;;;;;;;;;;;;;;;10.69;100.00;99389.69;5071444;28;814;-68
2023/04/17 05:47:26;;;;;;;;;;;;;;;10.66;100.00;99382.22;5071311;28;793;-66
2023/04/17 05:49:56;;;;;;;;;;;;;;;10.62;100.00;99370.41;5069989;28;1496;-66
2023/04/17 05:52:23;;;;;;;;;;;;;;;10.66;100.00;99364.84;5069892;28;1372;-69
2023/04/17 05:54:50;;;;;;;;;;;;;;;10.67;100.00;99364.44;5071242;28;851;-66
2023/04/17 05:57:22;;;;;;;;;;;;;;;10.69;100.00;99375.88;5071317;28;806;-68
2023/04/17 05:59:48;;;;;;;;;;;;;;;10.72;100.00;99388.84;5071126;28;1956;-66
2023/04/17 06:02:16;;;;;;;;;;;;;;;10.70;100.00;99396.00;5069946;28;1232;-66
2023/04/17 06:04:43;;;;;;;;;;;;;;;10.65;100.00;99397.25;5071227;28;890;-65
2023/04/17 06:07:10;;;;;;;;;;;;;;;10.69;100.00;99389.69;5071236;28;830;-66
2023/04/17 06:09:37;;;;;;;;;;;;;;;10.74;100.00;99382.94;5071441;28;1013;-65
2023/04/17 06:12:04;;;;;;;;;;;;;;;10.82;100.00;99389.94;5071127;28;866;-65
2023/04/17 06:14:31;;;;;;;;;;;;;;;10.85;100.00;99377.25;5071083;28;827;-66
2023/04/17 06:16:58;;;;;;;;;;;;;;;10.88;100.00;99387.47;5071176;28;893;-65
2023/04/17 06:19:26;;;;;;;;;;;;;;;10.82;100.00;99390.72;5070745;28;1878;-65
2023/04/17 06:21:53;;;;;;;;;;;;;;;10.79;100.00;99399.03;5071085;28;986;-66
2023/04/17 06:24:19;;;;;;;;;;;;;;;10.79;100.00;99402.59;5071284;28;802;-67
2023/04/17 06:26:46;;;;;;;;;;;;;;;10.78;100.00;99412.09;5070920;28;833;-66
2023/04/17 06:29:14;;;;;;;;;;;;;;;10.77;100.00;99409.72;5070916;28;857;-65
2023/04/17 06:31:41;;;;;;;;;;;;;;;10.74;100.00;99397.53;5070862;28;782;-67
2023/04/17 06:34:08;;;;;;;;;;;;;;;10.62;100.00;99392.53;5070886;28;857;-66
2023/04/17 06:36:35;;;;;;;;;;;;;;;10.56;100.00;99385.88;5071113;28;810;-67
2023/04/17 06:39:02;;;;;;;;;;;;;;;10.58;100.00;99381.53;5071094;28;1911;-66
2023/04/17 06:41:28;;;;;;;;;;;;;;;10.59;100.00;99374.03;5072997;28;844;-67
2023/04/17 06:43:55;;;;;;;;;;;;;;;10.60;100.00;99376.38;5074437;28;826;-67
2023/04/17 06:46:21;;;;;;;;;;;;;;;10.68;100.00;99374.28;5074320;28;935;-66
2023/04/17 06:48:51;;;;;;;;;;;;;;;10.76;100.00;99375.78;5074220;28;872;-66
2023/04/17 06:51:23;;;;;;;;;;;;;;;10.80;100.00;99381.28;5074634;28;782;-64
2023/04/17 06:53:51;;;;;;;;;;;;;;;10.80;100.00;99365.47;5074257;28;845;-65
2023/04/17 06:56:18;;;;;;;;;;;;;;;10.78;100.00;99367.09;5074182;28;868;-66
2023/04/17 06:58:46;;;;;;;;;;;;;;;10.77;100.00;99363.50;5074081;28;1951;-66
2023/04/17 07:01:13;;;;;;;;;;;;;;;10.75;100.00;99365.94;5074362;28;822;-68
2023/04/17 07:03:40;;;;;;;;;;;;;;;10.87;100.00;99361.03;5074291;28;855;-67
2023/04/17 07:06:07;;;;;;;;;;;;;;;11.00;100.00;99367.56;5074357;28;865;-67
2023/04/17 07:08:34;;;;;;;;;;;;;;;11.07;100.00;99378.53;5074097;28;1007;-68
2023/04/17 07:11:02;;;;;;;;;;;;;;;11.04;100.00;99384.91;5073938;28;834;-66
2023/04/17 07:13:31;;;;;;;;;;;;;;;11.01;100.00;99385.75;5073961;28;814;-66
2023/04/17 07:15:59;;;;;;;;;;;;;;;11.14;100.00;99388.72;5073752;28;935;-66
2023/04/17 07:18:28;;;;;;;;;;;;;;;11.31;100.00;99384.13;5073718;28;1949;-66
2023/04/17 07:20:55;;;;;;;;;;;;;;;11.38;100.00;99370.97;5073574;28;1312;-66
2023/04/17 07:23:22;;;;;;;;;;;;;;;11.39;100.00;99367.03;5073684;28;888;-66
2023/04/17 07:25:49;;;;;;;;;;;;;;;11.34;100.00;99348.13;5073688;28;916;-65
2023/04/17 07:28:16;;;;;;;;;;;;;;;11.33;100.00;99326.38;5073573;28;830;-65
2023/04/17 07:30:43;;;;;;;;;;;;;;;11.32;100.00;99316.53;5073809;28;850;-66
2023/04/17 07:33:10;;;;;;;;;;;;;;;11.34;100.00;99309.38;5073585;28;837;-66
2023/04/17 07:35:36;;;;;;;;;;;;;;;11.35;100.00;99302.66;5073428;28;905;-65
2023/04/17 07:38:04;;;;;;;;;;;;;;;11.45;100.00;99296.13;5073319;28;1906;-66
2023/04/17 07:40:32;;;;;;;;;;;;;;;11.60;100.00;99293.13;5072113;28;1377;-65
2023/04/17 07:42:58;;;;;;;;;;;;;;;11.79;100.00;99284.09;5073280;28;826;-67
2023/04/17 07:45:27;;;;;;;;;;;;;;;11.87;100.00;99267.38;5073341;28;889;-66
2023/04/17 07:47:54;;;;;;;;;;;;;;;11.97;100.00;99261.66;5073155;28;924;-67
2023/04/17 07:50:21;;;;;;;;;;;;;;;12.10;100.00;99261.81;5073154;28;878;-64
2023/04/17 07:52:48;;;;;;;;;;;;;;;12.22;100.00;99268.69;5071615;28;1207;-65
2023/04/17 07:55:15;;;;;;;;;;;;;;;12.37;100.00;99255.31;5072975;28;860;-63
2023/04/17 07:57:45;;;;;;;;;;;;;;;12.46;100.00;99252.75;5073066;28;897;-67
2023/04/17 08:00:13;;;;;;;;;;;;;;;12.44;100.00;99233.00;5072918;28;1890;-62
2023/04/17 08:02:40;;;;;;;;;;;;;;;12.34;100.00;99217.38;5072915;28;873;-61
2023/04/17 08:05:07;;;;;;;;;;;;;;;12.22;100.00;99232.66;5072810;28;834;-61
2023/04/17 08:07:35;;;;;;;;;;;;;;;12.21;100.00;99245.75;5072825;28;876;-61
2023/04/17 08:10:04;;;;;;;;;;;;;;;12.18;100.00;99243.84;5073139;28;938;-60
2023/04/17 08:12:30;;;;;;;;;;;;;;;12.31;100.00;99235.66;5072875;28;980;-61
2023/04/17 08:14:57;;;;;;;;;;;;;;;12.44;100.00;99228.25;5073095;28;816;-61
2023/04/17 08:17:24;;;;;;;;;;;;;;;12.59;100.00;99239.78;5072927;28;786;-60
2023/04/17 08:19:56;;;;;;;;;;;;;;;12.74;100.00;99234.72;5072506;28;1890;-60
2023/04/17 08:22:24;;;;;;;;;;;;;;;12.79;100.00;99236.19;5072514;28;932;-60
2023/04/17 08:37:01;;;;;;;;;;;;;;;13.77;100.00;99235.38;5072809;28;687;-62
2023/04/17 08:39:28;;;;;;;;;;;;;;;14.69;100.00;99236.72;5072464;28;1886;-61
2023/04/17 08:41:59;;;;;;;;;;;;;;;15.36;100.00;99232.22;5072454;28;834;-62
2023/04/17 08:44:25;;;;;;;;;;;;;;;15.90;100.00;99239.53;5072071;28;850;-67
2023/04/17 08:46:52;;;;;;;;;;;;;;;16.17;100.00;99235.38;5071990;28;814;-64
2023/04/17 08:49:18;;;;;;;;;;;;;;;15.87;100.00;99244.00;5072032;28;877;-61
2023/04/17 08:51:46;;;;;;;;;;;;;;;15.35;100.00;99241.81;5072066;28;806;-61
2023/04/17 08:54:13;;;;;;;;;;;;;;;15.43;100.00;99243.13;5071921;28;914;-62
2023/04/17 08:56:39;;;;;;;;;;;;;;;14.94;100.00;99252.66;5072012;28;806;-64
2023/04/17 08:59:05;;;;;;;;;;;;;;;14.82;100.00;99248.63;5071850;28;1953;-63
2023/04/17 09:01:33;;;;;;;;;;;;;;;14.73;100.00;99247.75;5072079;28;955;-61
2023/04/17 09:04:00;;;;;;;;;;;;;;;14.40;100.00;99256.22;5071272;28;825;-66
2023/04/17 09:06:26;;;;;;;;;;;;;;;14.15;100.00;99257.75;5071866;28;830;-63
2023/04/17 09:09:00;;;;;;;;;;;;;;;14.01;100.00;99263.69;5070597;28;1444;-67
2023/04/17 09:11:27;;;;;;;;;;;;;;;14.07;100.00;99261.94;5070422;28;1194;-68
2023/04/17 09:13:54;;;;;;;;;;;;;;;14.26;100.00;99263.00;5071824;28;826;-71
2023/04/17 09:16:23;;;;;;;;;;;;;;;14.34;100.00;99261.56;5071582;28;905;-67
2023/04/17 09:18:50;;;;;;;;;;;;;;;14.69;100.00;99259.75;5071567;28;1882;-69
2023/04/17 09:33:27;;;;;;;;;;;;;;;16.48;100.00;99257.72;5071852;28;617;-64
2023/04/17 09:35:54;;;;;;;;;;;;;;;15.99;100.00;99278.63;5071489;28;854;-69
2023/04/17 09:38:41;;;;;;;;;;;;;;;15.68;100.00;99264.53;5071431;28;1910;-65
2023/04/17 10:09:33;;;;;;;;;;;;;;;16.35;100.00;99302.44;5777374;22;1627;-61
2023/04/17 10:12:03;;;;;;;;;;;;;;;16.06;100.00;99309.03;5071513;28;761;-59
2023/04/17 10:14:39;;;;;;;;;;;;;;;16.12;100.00;99326.72;5072053;28;837;-61
2023/04/17 10:17:23;;;;;;;;;;;;;;;15.91;100.00;99302.38;5074899;28;843;-61
2023/04/17 10:19:50;;;;;;;;;;;;;;;15.96;100.00;99301.84;5073562;28;2039;-60
2023/04/17 10:22:19;;;;;;;;;;;;;;;16.17;100.00;99311.44;5074804;28;857;-63
2023/04/17 10:25:12;;;;;;;;;;;;;;;16.53;100.00;99298.97;5074934;28;884;-63
2023/04/17 10:27:39;;;;;;;;;;;;;;;17.12;100.00;99310.31;5072436;28;980;-62
2023/04/17 10:30:11;;;;;;;;;;;;;;;17.36;100.00;99304.97;5074689;28;877;-64
2023/04/17 10:32:41;;;;;;;;;;;;;;;17.04;100.00;99323.00;5074925;28;810;-64
2023/04/17 10:35:18;;;;;;;;;;;;;;;17.24;100.00;99330.97;5074779;28;834;-63
2023/04/17 10:37:50;;;;;;;;;;;;;;;17.80;100.00;99335.50;5074629;28;826;-63
2023/04/17 10:40:28;;;;;;;;;;;;;;;18.31;100.00;99343.31;5074324;28;1878;-63
2023/04/17 10:43:03;;;;;;;;;;;;;;;18.73;100.00;99339.88;5074463;28;830;-62
2023/04/17 10:45:47;;;;;;;;;;;;;;;18.32;100.00;99341.28;5074417;28;825;-62
2023/04/17 10:48:18;;;;;;;;;;;;;;;18.23;100.00;99341.31;5074327;28;830;-62
2023/04/17 10:50:46;;;;;;;;;;;;;;;18.63;100.00;99354.34;5074359;28;861;-62
2023/04/17 10:53:30;;;;;;;;;;;;;;;18.96;100.00;99346.81;5074290;28;818;-62
2023/04/17 10:55:57;;;;;;;;;;;;;;;20.22;100.00;99342.72;5072909;28;1155;-62
2023/04/17 10:58:23;;;;;;;;;;;;;;;20.51;100.00;99339.97;5074109;28;1957;-62
2023/04/17 11:00:50;;;;;;;;;;;;;;;19.50;100.00;99340.69;5074177;28;896;-62
2023/04/17 11:03:17;;;;;;;;;;;;;;;18.51;100.00;99347.66;5074087;28;866;-62
2023/04/17 11:05:44;;;;;;;;;;;;;;;17.84;100.00;99350.13;5072867;28;1451;-62
2023/04/17 11:08:11;;;;;;;;;;;;;;;17.38;100.00;99360.38;5073866;28;925;-62
2023/04/17 11:10:38;;;;;;;;;;;;;;;16.69;100.00;99364.97;5073798;28;1472;-62
2023/04/17 11:13:05;;;;;;;;;;;;;;;16.30;100.00;99365.16;5073980;28;829;-62
2023/04/17 11:15:33;;;;;;;;;;;;;;;16.46;100.00;99372.53;5074060;28;821;-62
2023/04/17 11:18:02;;;;;;;;;;;;;;;16.16;100.00;99370.44;5074028;28;1136;-62
2023/04/17 11:20:29;;;;;;;;;;;;;;;15.88;100.00;99373.75;5073857;28;885;-62
2023/04/17 11:23:02;;;;;;;;;;;;;;;15.91;100.00;99366.50;5073793;28;846;-62
2023/04/17 11:25:30;;;;;;;;;;;;;;;15.84;100.00;99372.31;5073761;28;870;-62
2023/04/17 11:28:04;;;;;;;;;;;;;;;15.46;100.00;99376.66;5073674;28;724;-62
2023/04/17 11:30:32;;;;;;;;;;;;;;;15.07;100.00;99372.31;5073887;28;853;-62
2023/04/17 11:33:00;;;;;;;;;;;;;;;14.73;100.00;99370.91;5073761;28;916;-62
2023/04/17 11:35:31;;;;;;;;;;;;;;;14.54;100.00;99382.97;5073540;28;849;-62
2023/04/17 11:38:07;;;;;;;;;;;;;;;14.49;100.00;99378.72;5073410;28;794;-62
2023/04/17 11:40:34;;;;;;;;;;;;;;;14.53;100.00;99386.94;5073665;28;869;-62
2023/04/17 11:43:08;;;;;;;;;;;;;;;14.56;100.00;99388.91;5073638;28;818;-63
2023/04/17 11:45:34;;;;;;;;;;;;;;;14.52;100.00;99394.50;5073323;28;869;-62
2023/04/17 11:48:02;;;;;;;;;;;;;;;14.39;100.00;99385.34;5073182;28;810;-62
2023/04/17 11:50:29;;;;;;;;;;;;;;;14.34;100.00;99395.00;5073209;28;920;-62
2023/04/17 11:52:57;;;;;;;;;;;;;;;14.26;100.00;99408.31;5073162;28;861;-62
2023/04/17 11:55:29;;;;;;;;;;;;;;;13.95;100.00;99407.91;5073074;28;822;-62
2023/04/17 11:57:57;;;;;;;;;;;;;;;13.67;100.00;99409.38;5071860;28;913;-62
2023/04/17 12:00:28;;;;;;;;;;;;;;;13.52;100.00;99417.25;5072941;28;1946;-62
2023/04/17 12:02:58;;;;;;;;;;;;;;;13.26;100.00;99422.56;5073032;28;887;-62
2023/04/17 12:05:25;;;;;;;;;;;;;;;13.05;100.00;99414.72;5073435;28;833;-61
2023/04/17 12:08:03;;;;;;;;;;;;;;;12.90;100.00;99407.91;5073067;28;793;-61
2023/04/17 12:10:39;;;;;;;;;;;;;;;12.72;100.00;99411.03;5072550;28;1230;-60
2023/04/17 12:13:06;;;;;;;;;;;;;;;12.57;100.00;99416.88;5071891;28;786;-60
2023/04/17 12:15:34;;;;;;;;;;;;;;;12.54;100.00;99422.47;5071827;28;1174;-61
2023/04/17 12:18:04;;;;;;;;;;;;;;;12.53;100.00;99430.00;5073185;28;807;-59
2023/04/17 12:20:35;;;;;;;;;;;;;;;12.41;100.00;99428.63;5072646;28;919;-59
2023/04/17 12:23:02;;;;;;;;;;;;;;;12.07;100.00;99434.38;5072617;28;841;-58
2023/04/17 12:25:30;;;;;;;;;;;;;;;11.82;100.00;99437.50;5072516;28;903;-57
2023/04/17 12:27:58;;;;;;;;;;;;;;;11.64;100.00;99438.59;5072474;28;870;-57
2023/04/17 12:30:25;;;;;;;;;;;;;;;11.51;100.00;99448.66;5072425;28;821;-58
2023/04/17 12:32:52;;;;;;;;;;;;;;;11.41;100.00;99452.38;5072405;28;809;-58
2023/04/17 12:35:19;;;;;;;;;;;;;;;11.44;100.00;99449.56;5072363;28;818;-58
2023/04/17 12:37:47;;;;;;;;;;;;;;;11.44;100.00;99449.56;5071528;28;888;-58
2023/04/17 12:40:17;;;;;;;;;;;;;;;11.44;100.00;99452.31;5072073;28;1975;-57
2023/04/17 12:42:46;;;;;;;;;;;;;;;11.37;100.00;99457.97;5072210;28;817;-56
2023/04/17 12:45:13;;;;;;;;;;;;;;;11.37;100.00;99457.16;5072457;28;846;-56
2023/04/17 12:47:41;;;;;;;;;;;;;;;11.34;100.00;99460.78;5072079;28;853;-56
2023/04/17 12:50:09;;;;;;;;;;;;;;;11.34;100.00;99455.25;5072091;28;864;-56
2023/04/17 12:52:37;;;;;;;;;;;;;;;11.25;100.00;99447.44;5072019;28;884;-57
2023/04/17 12:55:05;;;;;;;;;;;;;;;11.17;100.00;99449.53;5072082;28;862;-58
2023/04/17 12:57:32;;;;;;;;;;;;;;;11.20;100.00;99445.13;5071955;28;834;-59
2023/04/17 12:59:59;;;;;;;;;;;;;;;11.17;100.00;99446.75;5071882;28;1890;-58
2023/04/17 13:02:26;;;;;;;;;;;;;;;11.12;100.00;99450.00;5071845;28;810;-58
2023/04/17 13:04:52;;;;;;;;;;;;;;;11.08;100.00;99452.00;5071815;28;912;-58
2023/04/17 13:07:19;;;;;;;;;;;;;;;11.04;100.00;99452.06;5071834;28;818;-58
2023/04/17 13:09:46;;;;;;;;;;;;;;;11.03;100.00;99458.00;5071753;28;1276;-59
2023/04/17 13:12:14;;;;;;;;;;;;;;;11.01;100.00;99458.41;5071777;28;834;-60
2023/04/17 13:14:41;;;;;;;;;;;;;;;11.00;100.00;99456.06;5071686;28;825;-61
2023/04/17 13:17:08;;;;;;;;;;;;;;;11.00;100.00;99462.38;5071799;28;814;-58
2023/04/17 13:19:35;;;;;;;;;;;;;;;10.99;100.00;99462.81;5071536;28;1976;-58
2023/04/17 13:22:01;;;;;;;;;;;;;;;11.03;100.00;99453.25;5071670;28;915;-58
2023/04/17 13:24:28;;;;;;;;;;;;;;;10.99;100.00;99443.44;5071833;28;830;-60
2023/04/17 13:26:58;;;;;;;;;;;;;;;11.00;100.00;99440.25;5071568;28;885;-61
2023/04/17 13:29:25;;;;;;;;;;;;;;;11.00;100.00;99447.78;5071868;28;854;-62
2023/04/17 13:31:51;;;;;;;;;;;;;;;10.96;100.00;99433.97;5072051;28;770;-63
2023/04/17 13:34:19;;;;;;;;;;;;;;;10.90;100.00;99429.31;5071963;28;869;-62
2023/04/17 13:36:46;;;;;;;;;;;;;;;10.88;100.00;99424.22;5071632;28;849;-62
2023/04/17 13:39:13;;;;;;;;;;;;;;;10.93;100.00;99426.53;5071728;28;1893;-62
2023/04/17 13:41:41;;;;;;;;;;;;;;;10.91;100.00;99420.63;5071906;28;822;-60
2023/04/17 13:44:08;;;;;;;;;;;;;;;10.89;100.00;99417.47;5071700;28;830;-60
2023/04/17 13:46:35;;;;;;;;;;;;;;;10.90;100.00;99418.25;5071553;28;818;-62
2023/04/17 13:49:02;;;;;;;;;;;;;;;10.93;100.00;99403.63;5071571;28;861;-61
2023/04/17 13:51:30;;;;;;;;;;;;;;;11.02;100.00;99410.19;5075713;28;828;-62
2023/04/17 13:53:59;;;;;;;;;;;;;;;10.92;100.00;99404.81;5074193;28;880;-62